Rhosneigr, United Kingdom
Current Conditions -  °F | °C
As of 1:50 AM on Friday 21 Nov 2014 (Local Time) from EGOV Reporting Station
Haze Haze  
Wind Chill: 39°   Ceiling: 20000
Heat Index: 43°   Visibility: 5mi
Dew Point: 39°   Wind: 7mph
Humidity: 87%   Direction: 80°E
Pressure: 30.12"   Gusts: NA
Location:  53.23°N, 4.52°W
Report Text: EGOV 210150Z AUTO 08006KT 8000 HZ FEW019/// BKN200/// 06/04 Q1020
Loading
Personal Weather Stations






























Interactive Weather Map New forecast layout! Learn more

10-Day Weather Forecast

Advertisements
Track Severe Weather on mobile